Time;durP1;ratioP1;P1;durP2;ratioP2;P2;SDS_P1;SDS_P2;PMS_P1;PMS_P2;Temp;Humidity;BMP_temperature;BMP_pressure;BME280_temperature;BME280_humidity;BME280_pressure;Samples;Min_cycle;Max_cycle;Signal;HPM_P1;HPM_P2
2021/10/25 00:02:23;;;;;;;10.85;2.33;;;;;;;19.71;50.04;100241.59;4454814;32;20079;-70
2021/10/25 00:05:03;;;;;;;9.20;2.20;;;;;;;19.80;49.99;100247.81;4447440;32;20072;-70
2021/10/25 00:07:42;;;;;;;16.58;2.70;;;;;;;19.98;49.49;100235.19;4449407;32;20067;-70
2021/10/25 00:10:08;;;;;;;17.12;2.62;;;;;;;19.66;50.17;100230.91;4452518;32;20080;-69
2021/10/25 00:12:34;;;;;;;13.68;2.78;;;;;;;19.97;49.28;100233.59;4453943;32;20519;-69
2021/10/25 00:15:00;;;;;;;16.42;2.00;;;;;;;20.08;49.04;100239.34;4449533;32;20072;-70
2021/10/25 00:17:26;;;;;;;14.52;2.75;;;;;;;20.20;48.71;100229.53;4453183;32;20025;-70
2021/10/25 00:19:53;;;;;;;14.50;2.50;;;;;;;19.99;49.10;100242.44;4448415;32;20170;-70
2021/10/25 00:22:20;;;;;;;11.48;2.25;;;;;;;20.28;48.42;100232.66;4452012;32;20441;-69
2021/10/25 00:24:45;;;;;;;13.85;3.08;;;;;;;20.25;48.36;100239.41;4452841;32;20059;-69
2021/10/25 00:27:12;;;;;;;9.73;2.25;;;;;;;20.10;48.57;100239.63;4452509;32;20041;-69
2021/10/25 00:29:37;;;;;;;11.05;1.90;;;;;;;20.39;48.01;100241.25;4450136;32;20057;-69
2021/10/25 00:32:03;;;;;;;19.05;2.92;;;;;;;20.45;47.74;100237.09;4450417;32;20499;-70
2021/10/25 00:34:29;;;;;;;12.37;2.37;;;;;;;20.31;47.88;100234.50;4453227;32;20064;-69
2021/10/25 00:36:55;;;;;;;17.50;2.97;;;;;;;20.24;48.12;100234.97;4453971;32;20068;-70
2021/10/25 00:39:21;;;;;;;12.05;2.37;;;;;;;20.39;47.51;100232.66;4452746;32;20040;-70
2021/10/25 00:41:48;;;;;;;11.60;3.12;;;;;;;20.29;47.69;100229.28;4454992;32;20029;-70
2021/10/25 00:44:15;;;;;;;15.35;2.50;;;;;;;20.13;47.92;100230.06;4453215;32;20126;-70
2021/10/25 00:46:41;;;;;;;11.75;2.30;;;;;;;20.28;47.67;100224.84;4457089;32;20499;-70
2021/10/25 00:49:07;;;;;;;11.32;1.98;;;;;;;20.04;47.99;100227.41;4453622;32;20109;-70
2021/10/25 00:51:33;;;;;;;16.98;2.28;;;;;;;20.16;47.95;100220.44;4451897;32;20068;-70
2021/10/25 00:53:59;;;;;;;13.23;2.30;;;;;;;20.20;47.76;100226.69;4451528;32;20029;-70
2021/10/25 00:56:25;;;;;;;15.88;2.95;;;;;;;20.10;47.85;100213.91;4451533;32;20073;-70
2021/10/25 00:58:50;;;;;;;14.50;2.30;;;;;;;19.94;48.32;100217.50;4450963;32;20038;-70
2021/10/25 01:01:16;;;;;;;15.85;2.58;;;;;;;19.96;48.22;100212.06;4453796;32;20082;-70
2021/10/25 01:03:41;;;;;;;11.65;2.47;;;;;;;19.86;48.54;100218.53;4450236;32;20386;-70
2021/10/25 01:06:08;;;;;;;13.93;2.58;;;;;;;19.85;48.47;100214.13;4455873;32;20036;-70
2021/10/25 01:08:36;;;;;;;14.23;2.35;;;;;;;20.03;47.86;100214.41;4454236;32;20496;-70
2021/10/25 01:11:03;;;;;;;12.85;2.35;;;;;;;20.27;47.76;100216.81;4450246;32;20073;-69
2021/10/25 01:13:29;;;;;;;10.35;2.20;;;;;;;20.07;47.87;100214.16;4453513;32;20044;-70
2021/10/25 01:15:55;;;;;;;14.48;3.00;;;;;;;20.07;47.67;100211.31;4450248;32;20060;-70
2021/10/25 01:18:21;;;;;;;10.77;2.53;;;;;;;20.01;47.96;100213.37;4452312;32;20107;-70
2021/10/25 01:20:47;;;;;;;16.77;3.10;;;;;;;19.93;48.08;100210.22;4448143;32;20029;-70
2021/10/25 01:23:12;;;;;;;11.30;2.55;;;;;;;20.07;47.76;100209.25;4451166;32;20077;-70
2021/10/25 01:25:38;;;;;;;15.20;2.60;;;;;;;19.93;48.03;100210.22;4455325;32;20378;-70
2021/10/25 01:28:04;;;;;;;17.50;2.37;;;;;;;20.07;47.72;100209.25;4452133;32;20095;-69
2021/10/25 01:30:30;;;;;;;10.90;2.08;;;;;;;19.69;48.62;100209.91;4451172;32;20346;-69
2021/10/25 01:32:56;;;;;;;18.77;3.05;;;;;;;19.43;49.25;100206.44;4451327;32;20077;-69
2021/10/25 01:35:22;;;;;;;16.73;2.85;;;;;;;19.51;49.22;100213.19;4452915;32;20110;-69
2021/10/25 01:37:49;;;;;;;14.90;2.85;;;;;;;19.71;48.72;100216.69;4452316;32;20087;-70
2021/10/25 01:40:15;;;;;;;15.88;2.90;;;;;;;19.75;48.62;100222.12;4452216;32;20478;-69
2021/10/25 01:42:41;;;;;;;11.23;2.28;;;;;;;19.78;48.42;100218.22;4454081;32;20071;-70
2021/10/25 01:45:09;;;;;;;16.87;2.87;;;;;;;19.93;47.99;100218.81;4448161;32;20073;-69
2021/10/25 01:47:35;;;;;;;22.37;2.90;;;;;;;19.90;48.03;100228.41;4449481;32;20083;-70
2021/10/25 01:50:01;;;;;;;14.63;2.83;;;;;;;20.02;47.95;100232.06;4453021;32;20464;-70
2021/10/25 01:52:26;;;;;;;14.60;3.00;;;;;;;19.92;48.04;100225.81;4453835;32;20473;-70
2021/10/25 01:54:52;;;;;;;18.83;3.53;;;;;;;20.10;47.59;100221.69;4453050;32;20454;-70
2021/10/25 01:57:18;;;;;;;13.68;3.03;;;;;;;20.11;47.46;100215.47;4455329;32;20080;-70
2021/10/25 01:59:43;;;;;;;8.65;2.10;;;;;;;20.09;47.44;100223.75;4455785;32;20086;-70
2021/10/25 02:02:09;;;;;;;17.98;2.70;;;;;;;19.97;47.94;100222.19;4454371;32;20025;-70
2021/10/25 02:04:35;;;;;;;17.73;3.00;;;;;;;20.14;47.42;100211.59;4452112;32;20055;-70
2021/10/25 02:07:02;;;;;;;13.52;3.00;;;;;;;20.10;47.46;100208.22;4457044;32;20028;-70
2021/10/25 02:09:27;;;;;;;13.70;2.50;;;;;;;20.13;47.28;100200.69;4453512;32;20080;-70
2021/10/25 02:11:53;;;;;;;20.23;2.62;;;;;;;19.95;47.69;100204.81;4454127;32;20025;-69
2021/10/25 02:14:19;;;;;;;15.25;2.83;;;;;;;19.91;47.84;100197.78;4455716;32;20417;-70
2021/10/25 02:16:44;;;;;;;13.38;2.10;;;;;;;19.89;47.75;100200.34;4454941;32;20489;-70
2021/10/25 02:19:11;;;;;;;19.60;3.08;;;;;;;19.63;48.37;100197.69;4454220;32;20382;-70
2021/10/25 02:21:37;;;;;;;17.15;2.80;;;;;;;19.67;48.37;100186.81;4453569;32;20097;-69
2021/10/25 02:24:03;;;;;;;19.12;4.07;;;;;;;19.77;48.62;100191.00;4451455;32;20073;-70
2021/10/25 02:26:29;;;;;;;14.75;2.50;;;;;;;19.35;49.65;100186.19;4454019;32;20122;-69
2021/10/25 02:28:55;;;;;;;16.45;2.87;;;;;;;19.55;49.09;100174.56;4452527;32;20073;-70
2021/10/25 02:31:21;;;;;;;21.65;3.33;;;;;;;19.57;49.10;100180.53;4451964;32;20430;-69
2021/10/25 02:33:47;;;;;;;22.60;3.17;;;;;;;19.48;49.37;100191.41;4455871;32;20095;-69
2021/10/25 02:36:13;;;;;;;20.42;3.22;;;;;;;19.24;49.66;100191.03;4455789;32;20069;-70
2021/10/25 02:38:39;;;;;;;19.83;2.75;;;;;;;19.16;50.24;100190.72;4453488;32;20171;-69
2021/10/25 02:41:06;;;;;;;25.25;3.37;;;;;;;19.16;50.20;100187.09;4452000;32;20401;-69
2021/10/25 02:43:32;;;;;;;14.75;2.95;;;;;;;19.42;49.66;100190.63;4457392;32;20073;-69
2021/10/25 02:45:59;;;;;;;20.48;2.80;;;;;;;19.32;49.79;100187.19;4456958;32;20064;-69
2021/10/25 02:48:25;;;;;;;17.45;2.50;;;;;;;19.45;49.29;100183.84;4452968;32;20103;-70
2021/10/25 02:50:52;;;;;;;19.50;2.50;;;;;;;19.27;49.87;100185.09;4452354;32;20470;-69
2021/10/25 02:53:19;;;;;;;16.25;3.00;;;;;;;19.35;49.61;100180.47;4454958;32;20025;-69
2021/10/25 02:55:46;;;;;;;19.10;2.67;;;;;;;19.39;49.44;100178.12;4453196;32;20416;-69
2021/10/25 02:58:11;;;;;;;15.95;2.62;;;;;;;19.11;49.95;100162.16;4453042;32;20085;-70
2021/10/25 03:00:38;;;;;;;24.87;2.78;;;;;;;19.27;49.63;100175.78;4451401;32;20045;-70
2021/10/25 03:03:03;;;;;;;23.45;3.20;;;;;;;19.11;50.03;100165.00;4454002;32;20075;-69
2021/10/25 03:05:29;;;;;;;13.88;2.85;;;;;;;19.13;50.03;100166.06;4455322;32;20406;-69
2021/10/25 03:07:55;;;;;;;14.68;2.60;;;;;;;19.34;49.26;100172.41;4455140;32;20446;-69
2021/10/25 03:10:21;;;;;;;14.40;2.47;;;;;;;19.36;49.42;100172.69;4452622;32;20037;-70
2021/10/25 03:12:47;;;;;;;15.85;2.67;;;;;;;19.40;49.24;100174.00;4453545;32;20147;-69
2021/10/25 03:15:13;;;;;;;20.00;2.83;;;;;;;19.42;49.13;100170.66;4451960;32;20080;-69
2021/10/25 03:17:39;;;;;;;14.60;2.75;;;;;;;19.42;49.00;100171.41;4454762;32;20060;-69
2021/10/25 03:20:05;;;;;;;16.58;3.00;;;;;;;19.15;49.76;100169.19;4456567;32;20073;-69
2021/10/25 03:22:31;;;;;;;15.18;2.45;;;;;;;19.27;49.61;100167.97;4453503;32;20079;-69
2021/10/25 03:24:58;;;;;;;16.12;3.62;;;;;;;19.32;49.36;100175.00;4450473;32;20054;-69
2021/10/25 03:27:24;;;;;;;13.30;2.37;;;;;;;19.50;49.04;100183.91;4451958;32;20407;-69
2021/10/25 03:29:50;;;;;;;16.33;3.17;;;;;;;19.24;49.47;100168.19;4453122;32;20060;-69
2021/10/25 03:32:16;;;;;;;19.20;3.20;;;;;;;19.32;49.22;100169.28;4458467;32;20105;-69
2021/10/25 03:34:42;;;;;;;16.83;3.10;;;;;;;19.22;49.40;100163.00;4452685;32;20033;-69
2021/10/25 03:37:07;;;;;;;18.58;2.90;;;;;;;19.33;49.16;100165.91;4455411;32;20112;-69
2021/10/25 03:39:36;;;;;;;20.52;3.30;;;;;;;19.34;48.96;100161.00;4454935;32;20201;-69
2021/10/25 03:42:07;;;;;;;14.35;2.83;;;;;;;19.24;49.29;100160.41;4451890;32;20069;-69
2021/10/25 03:44:43;;;;;;;16.02;3.00;;;;;;;19.17;49.58;100169.47;4453910;32;20167;-69
2021/10/25 03:47:18;;;;;;;18.50;4.12;;;;;;;18.96;49.84;100170.13;4450425;32;20174;-69
2021/10/25 03:49:58;;;;;;;16.80;3.35;;;;;;;19.12;49.62;100158.78;4449794;32;20054;-69
2021/10/25 03:52:33;;;;;;;28.08;3.58;;;;;;;19.28;49.20;100163.84;4452845;32;20037;-69
2021/10/25 03:55:09;;;;;;;16.20;3.78;;;;;;;19.10;49.54;100164.25;4453339;32;20073;-69
2021/10/25 03:58:02;;;;;;;12.60;2.70;;;;;;;19.01;49.60;100158.75;4452007;32;20080;-69
2021/10/25 04:00:52;;;;;;;24.95;4.07;;;;;;;19.11;49.36;100151.53;4454358;32;20103;-69
2021/10/25 04:28:01;;;;;;;20.95;5.37;;;;;;;18.63;51.15;100162.16;4435965;32;20099;-70
2021/10/25 04:30:31;;;;;;;25.70;6.62;;;;;;;18.27;51.84;100170.62;4437159;32;20022;-70
2021/10/25 04:32:57;;;;;;;19.33;5.12;;;;;;;18.67;50.98;100165.53;4440961;32;20062;-70
2021/10/25 04:35:22;;;;;;;22.17;4.90;;;;;;;18.37;51.49;100167.13;4441567;32;20486;-70
2021/10/25 04:37:48;;;;;;;24.00;5.32;;;;;;;18.36;51.50;100161.91;4438940;32;20065;-70
2021/10/25 04:40:15;;;;;;;21.80;5.05;;;;;;;18.13;52.30;100169.47;4436678;32;20161;-70
2021/10/25 04:42:41;;;;;;;23.12;4.70;;;;;;;18.35;51.77;100177.44;4437731;32;20070;-70
2021/10/25 04:45:07;;;;;;;14.70;3.87;;;;;;;18.37;51.86;100167.13;4439615;32;20037;-70
2021/10/25 04:47:34;;;;;;;28.27;5.43;;;;;;;18.34;52.11;100161.63;4437844;32;20481;-70
2021/10/25 04:49:59;;;;;;;13.30;4.05;;;;;;;18.45;51.60;100167.44;4437649;32;20094;-70
2021/10/25 04:52:27;;;;;;;12.88;3.97;;;;;;;18.38;51.81;100165.06;4438023;32;20045;-70
2021/10/25 04:54:53;;;;;;;15.60;4.12;;;;;;;18.72;51.12;100166.88;4439389;32;20319;-70
2021/10/25 04:57:19;;;;;;;23.12;4.40;;;;;;;18.82;50.83;100166.16;4437042;32;20123;-70
2021/10/25 04:59:45;;;;;;;19.27;3.90;;;;;;;18.69;50.80;100170.75;4439979;32;20116;-70
2021/10/25 05:02:12;;;;;;;17.33;3.08;;;;;;;19.01;50.32;100166.50;4439202;32;20135;-70
2021/10/25 05:04:38;;;;;;;16.67;4.85;;;;;;;19.09;50.11;100174.06;4439603;32;20167;-70
2021/10/25 05:07:04;;;;;;;22.95;4.20;;;;;;;18.98;50.39;100167.53;4434753;32;20034;-70
2021/10/25 05:09:30;;;;;;;14.32;4.20;;;;;;;18.97;50.31;100178.19;4438289;32;20470;-70
2021/10/25 05:11:57;;;;;;;16.35;4.15;;;;;;;19.00;50.05;100170.66;4437811;32;20025;-70
2021/10/25 05:14:22;;;;;;;13.38;3.28;;;;;;;18.88;50.71;100174.75;4437152;32;20133;-70
2021/10/25 05:16:49;;;;;;;20.40;3.60;;;;;;;18.99;50.51;100171.97;4436948;32;20056;-70
2021/10/25 05:19:15;;;;;;;23.95;3.40;;;;;;;18.82;51.13;100171.06;4436310;32;20077;-70
2021/10/25 05:21:41;;;;;;;15.00;2.97;;;;;;;19.12;50.44;100181.59;4433672;32;20079;-70
2021/10/25 05:24:06;;;;;;;17.77;2.95;;;;;;;18.88;50.76;100172.69;4432522;32;20025;-70
2021/10/25 05:26:32;;;;;;;18.12;2.90;;;;;;;18.87;50.70;100187.44;4436768;32;20622;-70
2021/10/25 05:29:01;;;;;;;13.90;3.10;;;;;;;18.80;51.12;100173.66;4425940;32;20432;-70
2021/10/25 05:31:27;;;;;;;14.00;2.50;;;;;;;19.03;50.42;100175.34;4427869;32;20037;-70
2021/10/25 05:33:53;;;;;;;9.60;2.50;;;;;;;18.83;51.00;100176.28;4427635;32;20455;-70
2021/10/25 05:36:19;;;;;;;12.02;2.67;;;;;;;19.06;50.47;100177.19;4423507;32;20072;-70
2021/10/25 05:38:45;;;;;;;18.87;3.10;;;;;;;18.83;50.84;100178.31;4427661;32;20154;-70
2021/10/25 05:41:12;;;;;;;9.60;1.98;;;;;;;18.80;50.97;100176.50;4427284;32;20377;-70
2021/10/25 05:43:39;;;;;;;12.23;2.92;;;;;;;19.04;50.25;100171.19;4422921;32;20370;-70
2021/10/25 05:46:04;;;;;;;15.07;2.30;;;;;;;18.68;51.07;100167.09;4423264;32;20034;-69
2021/10/25 05:48:30;;;;;;;12.73;2.47;;;;;;;18.62;51.17;100166.28;4429944;32;20100;-70
2021/10/25 05:50:56;;;;;;;15.57;2.70;;;;;;;18.94;50.68;100164.16;4427180;32;20100;-70
2021/10/25 05:53:22;;;;;;;11.73;2.25;;;;;;;18.84;50.90;100165.66;4424013;32;20136;-70
2021/10/25 05:55:48;;;;;;;16.20;2.75;;;;;;;18.96;50.46;100168.03;4424398;32;20200;-70
2021/10/25 05:58:23;;;;;;;15.05;2.95;;;;;;;18.94;50.48;100173.50;4426660;32;20125;-70
2021/10/25 06:00:53;;;;;;;12.00;2.00;;;;;;;19.09;50.21;100165.50;4425656;32;20073;-70
2021/10/25 06:03:23;;;;;;;18.00;2.80;;;;;;;18.81;50.75;100163.81;4429114;32;20045;-70
2021/10/25 06:05:49;;;;;;;12.15;2.50;;;;;;;18.66;51.19;100163.19;4426914;32;20155;-70
2021/10/25 06:08:15;;;;;;;12.68;2.40;;;;;;;18.62;51.25;100168.38;4425661;32;20145;-70
2021/10/25 06:10:42;;;;;;;10.50;2.42;;;;;;;18.65;51.22;100168.09;4427140;32;20112;-69
2021/10/25 06:13:10;;;;;;;11.18;2.60;;;;;;;18.74;51.13;100176.47;4424047;32;20112;-70
2021/10/25 06:15:39;;;;;;;16.83;2.78;;;;;;;18.66;51.09;100174.59;4423220;32;20033;-70
2021/10/25 06:18:08;;;;;;;10.80;2.15;;;;;;;18.49;51.46;100173.69;4427342;32;21078;-70
2021/10/25 06:20:37;;;;;;;22.70;3.60;;;;;;;18.74;51.02;100169.97;4427458;32;20033;-70
2021/10/25 06:23:09;;;;;;;16.67;2.60;;;;;;;18.87;50.84;100164.62;4421714;32;20088;-70
2021/10/25 06:25:35;;;;;;;18.83;5.62;;;;;;;19.05;50.27;100167.06;4425000;32;20090;-70
2021/10/25 06:28:02;;;;;;;14.77;2.90;;;;;;;18.75;51.00;100171.56;4426649;32;20443;-70
2021/10/25 06:30:27;;;;;;;13.18;2.45;;;;;;;18.74;50.90;100170.75;4420869;32;20410;-70
2021/10/25 06:32:53;;;;;;;11.57;2.83;;;;;;;18.87;50.50;100178.91;4424689;32;20029;-70
2021/10/25 06:35:24;;;;;;;13.88;2.58;;;;;;;18.96;50.13;100167.28;4425005;32;20143;-70
2021/10/25 06:37:50;;;;;;;14.15;2.70;;;;;;;18.98;49.99;100181.78;4425318;32;20034;-70
2021/10/25 06:40:18;;;;;;;16.15;2.95;;;;;;;18.98;49.80;100191.12;4424627;32;20400;-70
2021/10/25 06:42:44;;;;;;;12.95;2.92;;;;;;;19.43;49.18;100192.16;4425102;32;20668;-70
2021/10/25 06:45:14;;;;;;;13.45;2.75;;;;;;;19.26;49.11;100188.41;4425766;32;20052;-70
2021/10/25 06:47:40;;;;;;;13.98;3.15;;;;;;;19.31;49.02;100188.50;4427648;32;20097;-70
2021/10/25 06:50:07;;;;;;;16.60;2.55;;;;;;;19.43;48.70;100195.03;4423339;32;20053;-70
2021/10/25 06:52:34;;;;;;;20.83;3.53;;;;;;;19.58;48.26;100201.31;4424338;32;20399;-70
2021/10/25 06:55:00;;;;;;;9.70;2.75;;;;;;;19.41;48.69;100198.41;4422661;32;20056;-70
2021/10/25 06:57:26;;;;;;;17.27;2.95;;;;;;;19.31;48.85;100199.91;4426366;32;20108;-70
2021/10/25 06:59:52;;;;;;;18.52;2.72;;;;;;;19.24;48.96;100196.72;4422519;32;20069;-70
2021/10/25 07:02:19;;;;;;;12.45;2.80;;;;;;;19.39;48.75;100203.81;4425288;32;20113;-70
2021/10/25 07:04:47;;;;;;;16.65;2.72;;;;;;;19.09;48.92;100202.59;4427710;32;20041;-70
2021/10/25 07:07:13;;;;;;;11.43;2.40;;;;;;;19.28;48.76;100198.06;4424824;32;20092;-70
2021/10/25 07:09:39;;;;;;;12.40;2.37;;;;;;;19.22;48.78;100202.94;4419716;32;20497;-70
2021/10/25 07:12:06;;;;;;;9.45;2.80;;;;;;;19.26;48.73;100202.69;4425186;32;20026;-70
2021/10/25 07:14:36;;;;;;;16.65;2.90;;;;;;;19.27;48.70;100202.19;4423126;32;20582;-70
2021/10/25 08:06:32;;;;;;;18.80;3.17;;;;;;;19.88;47.21;100259.53;3960497;32;15014895;-70
2021/10/25 08:12:09;;;;;;;13.45;2.72;;;;;;;20.72;45.35;100255.56;3982528;32;15022379;-70
2021/10/25 08:14:29;;;;;;;9.95;2.03;;;;;;;20.86;45.07;100257.37;4439129;32;20419;-71
2021/10/25 08:16:55;;;;;;;5.77;1.70;;;;;;;21.37;44.43;100257.56;4439037;32;20545;-71
2021/10/25 08:19:25;;;;;;;11.65;2.00;;;;;;;22.19;43.05;100269.22;4436820;32;20403;-71
2021/10/25 08:24:31;;;;;;;10.88;2.05;;;;;;;22.95;41.14;100264.25;3982656;32;15024035;-71
2021/10/25 08:26:56;;;;;;;11.32;2.33;;;;;;;23.12;40.42;100262.78;4437906;32;20203;-69
2021/10/25 08:29:23;;;;;;;10.32;2.10;;;;;;;23.10;40.62;100264.63;4437152;32;20678;-69
2021/10/25 08:32:02;;;;;;;14.90;2.15;;;;;;;22.75;40.94;100253.97;4436924;32;20021;-69
2021/10/25 08:40:13;;;;;;;8.40;1.95;;;;;;;23.61;40.00;100274.28;3980871;32;15025055;-71
2021/10/25 08:42:34;;;;;;;9.68;1.87;;;;;;;23.61;40.00;100274.28;4437733;32;20109;-72
2021/10/25 08:45:08;;;;;;;9.60;2.12;;;;;;;23.49;39.54;100268.66;4437606;32;20037;-71
2021/10/25 08:47:40;;;;;;;10.40;1.90;;;;;;;23.77;39.31;100276.19;4442128;32;20073;-71
2021/10/25 08:50:09;;;;;;;8.07;1.55;;;;;;;23.96;39.31;100272.03;4438171;32;20056;-71
2021/10/25 08:52:35;;;;;;;9.20;2.20;;;;;;;23.91;38.81;100270.00;4439152;32;20038;-71
2021/10/25 08:55:04;;;;;;;6.28;1.90;;;;;;;24.37;38.13;100281.13;4433408;32;20392;-71
2021/10/25 08:57:32;;;;;;;9.73;2.33;;;;;;;24.71;37.34;100273.56;4441223;32;20041;-71
2021/10/25 09:00:00;;;;;;;11.50;2.03;;;;;;;24.65;37.37;100277.84;4438211;32;20575;-70
2021/10/25 09:02:27;;;;;;;9.93;1.92;;;;;;;24.94;37.01;100271.06;4433779;32;20108;-70
2021/10/25 09:04:59;;;;;;;9.27;2.10;;;;;;;25.15;36.53;100275.69;4439993;32;20087;-70
2021/10/25 09:07:26;;;;;;;11.68;2.17;;;;;;;24.99;36.55;100273.88;4439382;32;20033;-70
2021/10/25 09:09:51;;;;;;;8.20;1.30;;;;;;;24.59;37.14;100268.50;4436476;32;20089;-70
2021/10/25 09:12:17;;;;;;;6.32;1.30;;;;;;;24.72;36.91;100269.38;4437732;32;20541;-70
2021/10/25 09:14:45;;;;;;;9.52;1.65;;;;;;;23.98;37.36;100275.16;4439242;32;20106;-70
2021/10/25 09:17:11;;;;;;;6.53;1.50;;;;;;;24.13;37.48;100274.69;4435855;32;20438;-70
2021/10/25 09:19:38;;;;;;;7.50;1.55;;;;;;;24.09;37.46;100257.75;4431430;32;20157;-70
2021/10/25 09:22:07;;;;;;;6.47;1.80;;;;;;;23.89;37.78;100264.00;4437776;32;20076;-72
2021/10/25 09:24:34;;;;;;;6.35;1.67;;;;;;;24.33;37.39;100268.41;4434034;32;21158;-70
2021/10/25 09:27:04;;;;;;;6.28;1.27;;;;;;;23.77;38.39;100264.69;4437958;32;20029;-70
2021/10/25 09:29:34;;;;;;;6.95;1.45;;;;;;;24.02;38.01;100269.84;4435613;32;20045;-71
2021/10/25 09:32:08;;;;;;;7.75;1.10;;;;;;;24.04;38.21;100272.19;4438296;32;20038;-71
2021/10/25 09:34:44;;;;;;;5.32;1.17;;;;;;;24.28;37.45;100275.78;4441056;32;20064;-69
2021/10/25 09:37:16;;;;;;;3.85;1.00;;;;;;;24.42;36.59;100273.75;4434451;32;20125;-70
2021/10/25 09:39:48;;;;;;;4.47;0.80;;;;;;;24.45;36.18;100278.41;4435167;32;21263;-70
2021/10/25 09:42:34;;;;;;;4.65;0.93;;;;;;;24.64;36.28;100279.16;4438034;32;20371;-70
2021/10/25 09:51:02;;;;;;;4.20;1.08;;;;;;;24.87;35.48;100286.91;3984915;32;15025773;-72
2021/10/25 09:53:35;;;;;;;3.15;0.90;;;;;;;24.87;35.48;100286.91;4437813;32;20095;-72
2021/10/25 09:56:01;;;;;;;4.93;0.82;;;;;;;24.82;35.46;100293.53;4439785;32;20422;-72
2021/10/25 09:58:38;;;;;;;7.62;1.75;;;;;;;24.45;35.63;100281.28;4436125;32;20081;-72
2021/10/25 10:01:04;;;;;;;11.23;1.35;;;;;;;24.28;36.28;100283.63;4437495;32;20097;-72
2021/10/25 10:03:30;;;;;;;4.97;1.33;;;;;;;24.16;36.59;100277.25;4437058;32;20083;-72
2021/10/25 10:05:59;;;;;;;5.95;1.20;;;;;;;24.50;36.21;100278.31;4436028;32;20053;-72
2021/10/25 10:08:27;;;;;;;3.83;0.90;;;;;;;24.44;35.92;100279.72;4437298;32;20471;-72
2021/10/25 10:10:55;;;;;;;3.90;1.05;;;;;;;24.79;35.78;100291.75;4436195;32;20403;-72
2021/10/25 10:13:23;;;;;;;7.10;1.20;;;;;;;24.62;35.56;100296.97;4430331;32;20308;-72
2021/10/25 10:15:53;;;;;;;3.25;0.80;;;;;;;24.31;35.62;100300.56;4434502;32;20103;-72
2021/10/25 10:18:21;;;;;;;4.85;1.02;;;;;;;24.06;36.09;100290.47;4437675;32;20069;-72
2021/10/25 10:20:51;;;;;;;1.62;0.80;;;;;;;23.97;36.55;100295.81;4435222;32;20082;-72
2021/10/25 10:23:20;;;;;;;4.82;0.90;;;;;;;24.03;36.34;100293.63;4433061;32;20041;-71
2021/10/25 10:25:53;;;;;;;4.53;0.90;;;;;;;24.11;36.11;100298.22;4437866;32;20130;-72
2021/10/25 10:28:32;;;;;;;9.00;1.42;;;;;;;24.15;36.18;100304.47;4439408;32;20085;-71
2021/10/25 10:33:41;;;;;;;5.47;0.80;;;;;;;23.94;36.67;100294.78;4004603;31;15015925;-72
2021/10/25 10:38:50;;;;;;;4.53;1.12;;;;;;;23.13;37.09;100295.09;3977369;32;15015777;-70
2021/10/25 10:41:19;;;;;;;3.03;0.80;;;;;;;23.13;37.09;100295.09;4436145;32;20065;-70
2021/10/25 10:43:57;;;;;;;3.90;0.90;;;;;;;22.73;37.82;100299.62;4439789;32;20475;-70
2021/10/25 10:46:24;;;;;;;6.75;1.10;;;;;;;22.54;36.96;100289.34;4432745;32;20729;-69
2021/10/25 10:48:56;;;;;;;5.65;0.90;;;;;;;22.28;38.37;100301.22;4433288;32;20649;-70
2021/10/25 10:51:27;;;;;;;7.60;0.90;;;;;;;22.34;38.34;100295.44;4439834;32;20067;-70
2021/10/25 10:54:02;;;;;;;6.37;1.17;;;;;;;22.23;38.67;100290.56;4436880;32;20104;-70
2021/10/25 10:56:33;;;;;;;;;;;;;;;22.33;38.18;100303.25;4438500;32;20022;-70
2021/10/25 10:59:34;;;;;;;6.55;1.05;;;;;;;22.39;38.25;100300.34;4435243;32;19981;-70
2021/10/25 11:01:54;;;;;;;4.10;1.05;;;;;;;22.49;38.12;100302.38;4437646;32;20132;-70
2021/10/25 11:04:29;;;;;;;8.13;1.45;;;;;;;23.01;37.71;100302.28;4435017;32;20133;-70
2021/10/25 11:07:01;;;;;;;6.70;1.62;;;;;;;22.95;37.87;100307.28;4438590;32;20108;-71
2021/10/25 11:09:30;;;;;;;4.00;1.27;;;;;;;23.69;37.00;100310.50;4438885;32;20097;-71
2021/10/25 11:12:01;;;;;;;4.30;0.95;;;;;;;24.02;36.12;100304.34;4439809;32;20052;-70
2021/10/25 11:14:29;;;;;;;5.70;0.90;;;;;;;24.80;34.77;100307.72;4436759;32;20377;-70
2021/10/25 11:17:14;;;;;;;3.53;0.77;;;;;;;24.86;34.46;100308.37;4437950;32;20138;-70
2021/10/25 11:19:49;;;;;;;4.60;0.68;;;;;;;25.13;34.04;100295.59;4432123;32;20033;-71
2021/10/25 11:22:33;;;;;;;3.62;1.00;;;;;;;25.23;32.94;100308.28;4433647;32;20030;-70
2021/10/25 11:25:02;;;;;;;5.78;0.80;;;;;;;25.91;32.25;100309.34;4436243;32;20091;-71
2021/10/25 11:27:31;;;;;;;4.87;1.00;;;;;;;25.47;31.81;100310.22;4438374;32;20068;-71
2021/10/25 11:30:18;;;;;;;2.65;1.00;;;;;;;25.74;31.31;100311.78;4435480;32;20683;-70
2021/10/25 11:32:45;;;;;;;6.32;1.15;;;;;;;25.95;30.63;100312.66;4435030;32;20060;-70
2021/10/25 11:35:13;;;;;;;4.18;0.93;;;;;;;25.39;31.93;100315.06;4439129;32;20076;-70
2021/10/25 11:37:50;;;;;;;3.25;0.98;;;;;;;25.81;31.03;100316.88;4443538;32;20103;-70
2021/10/25 11:40:23;;;;;;;19.30;8.32;;;;;;;26.51;29.49;100312.25;4437818;32;20472;-70
2021/10/25 11:42:49;;;;;;;4.72;1.02;;;;;;;26.78;29.59;100310.84;4450700;32;20464;-70
2021/10/25 11:45:19;;;;;;;5.65;1.05;;;;;;;26.78;29.10;100320.28;4445985;32;20064;-70
2021/10/25 11:47:47;;;;;;;4.62;1.00;;;;;;;27.05;28.54;100333.25;4452838;32;20029;-70
2021/10/25 11:50:16;;;;;;;7.00;1.52;;;;;;;26.66;28.67;100332.66;4441066;32;20103;-70
2021/10/25 11:55:23;;;;;;;8.30;1.30;;;;;;;27.42;27.75;100340.75;3983977;32;15022033;-70
2021/10/25 11:57:53;;;;;;;7.68;0.90;;;;;;;27.42;27.75;100340.75;4440288;32;20024;-70
2021/10/25 12:00:22;;;;;;;9.02;0.95;;;;;;;26.73;28.24;100323.31;4438103;32;20060;-70
2021/10/25 12:02:48;;;;;;;3.58;1.20;;;;;;;27.40;27.56;100328.22;4432549;32;20021;-71
2021/10/25 12:05:24;;;;;;;9.20;1.62;;;;;;;27.90;27.43;100331.31;4438472;32;20073;-70
2021/10/25 12:07:52;;;;;;;4.47;1.02;;;;;;;28.33;26.68;100331.34;4436388;32;20064;-71
2021/10/25 12:10:19;;;;;;;3.55;1.40;;;;;;;28.18;26.76;100331.25;4437149;32;20065;-70
2021/10/25 12:12:46;;;;;;;7.10;1.30;;;;;;;27.90;27.11;100334.19;4438955;32;20152;-70
2021/10/25 12:15:16;;;;;;;5.97;1.35;;;;;;;27.04;28.15;100330.94;4436360;32;20042;-70
2021/10/25 12:17:43;;;;;;;5.28;0.95;;;;;;;27.21;27.90;100329.16;4433467;32;20358;-70
2021/10/25 12:20:12;;;;;;;3.28;0.70;;;;;;;26.52;28.26;100331.13;4436471;32;20061;-70
2021/10/25 12:22:41;;;;;;;4.85;0.77;;;;;;;25.67;29.69;100329.72;4433763;32;20044;-70
2021/10/25 12:25:07;;;;;;;3.85;0.43;;;;;;;24.64;30.25;100340.38;4439155;32;20060;-70
2021/10/25 12:27:37;;;;;;;3.62;0.70;;;;;;;24.26;30.87;100330.16;4438605;32;20161;-70
2021/10/25 12:38:20;;;;;;;2.67;0.75;;;;;;;23.74;32.15;100324.00;3983248;32;15025404;-70
2021/10/25 12:40:49;;;;;;;9.50;1.00;;;;;;;23.74;32.15;100324.00;4437015;32;20071;-70
2021/10/25 12:43:16;;;;;;;5.87;0.90;;;;;;;23.55;32.37;100331.78;4436733;32;20099;-70
2021/10/25 12:45:56;;;;;;;5.75;0.73;;;;;;;23.37;32.30;100324.66;4434416;32;20621;-70
2021/10/25 12:48:22;;;;;;;2.60;0.70;;;;;;;23.01;32.57;100305.16;4436142;32;20074;-70
2021/10/25 12:50:50;;;;;;;6.50;0.93;;;;;;;23.51;32.03;100317.72;4436975;32;20070;-70
2021/10/25 12:53:19;;;;;;;6.32;1.20;;;;;;;23.56;32.12;100316.09;4437129;32;20038;-70
2021/10/25 12:56:00;;;;;;;8.85;1.10;;;;;;;23.45;32.19;100319.91;4438934;32;20065;-70
2021/10/25 12:58:28;;;;;;;5.75;1.20;;;;;;;23.55;32.41;100314.56;4437074;32;20449;-70
2021/10/25 13:00:54;;;;;;;5.72;0.80;;;;;;;23.21;32.92;100316.19;4436320;32;20363;-70
2021/10/25 13:03:29;;;;;;;7.10;1.37;;;;;;;23.57;32.91;100306.19;4432496;32;20025;-70
2021/10/25 13:06:06;;;;;;;4.57;1.03;;;;;;;23.91;32.58;100315.19;4432216;32;20181;-70
2021/10/25 13:08:32;;;;;;;8.82;1.30;;;;;;;23.65;32.69;100309.25;4437034;32;20635;-70
2021/10/25 13:10:58;;;;;;;7.62;0.80;;;;;;;23.44;32.98;100306.84;4434030;32;20066;-70
2021/10/25 13:13:27;;;;;;;5.78;1.00;;;;;;;23.66;32.19;100307.91;4435507;32;20365;-70